createdAt,value
2022-09-17T00:03:28.631Z,65.19
2022-09-17T00:08:20.392Z,65.93
2022-09-17T00:13:12.226Z,65.91
2022-09-17T00:18:04.206Z,65.72
2022-09-17T00:22:55.901Z,66.24
2022-09-17T00:27:47.770Z,66.41
2022-09-17T00:32:39.794Z,66.76
2022-09-17T00:37:31.734Z,67.61
2022-09-17T00:42:23.599Z,67.23
2022-09-17T00:47:30.150Z,67.09
2022-09-17T00:52:40.092Z,66.94
2022-09-17T00:57:32.220Z,67.42
2022-09-17T01:02:25.101Z,67.68
2022-09-17T01:07:52.400Z,68.13
2022-09-17T01:13:11.133Z,68.30
2022-09-17T01:18:05.054Z,69.05
2022-09-17T01:23:34.107Z,68.82
2022-09-17T01:28:40.645Z,69.86
2022-09-17T01:33:47.229Z,69.71
2022-09-17T01:38:54.851Z,70.09
2022-09-17T01:43:59.014Z,70.58
2022-09-17T01:48:54.646Z,70.97
2022-09-17T01:53:54.166Z,71.14
2022-09-17T01:58:56.838Z,71.42
2022-09-17T02:04:14.899Z,71.40
2022-09-17T02:09:22.513Z,71.68
2022-09-17T02:14:19.067Z,72.27
2022-09-17T02:19:22.942Z,71.97
2022-09-17T02:24:21.161Z,71.53
2022-09-17T02:29:19.097Z,71.65
2022-09-17T02:34:11.514Z,71.07
2022-09-17T02:39:04.638Z,71.32
2022-09-17T02:44:03.943Z,70.90
2022-09-17T02:49:15.216Z,71.03
2022-09-17T02:54:28.086Z,71.31
2022-09-17T02:59:25.447Z,71.33
2022-09-17T03:04:20.252Z,71.57
2022-09-17T03:09:12.062Z,71.49
2022-09-17T03:14:04.518Z,71.85
2022-09-17T03:18:56.131Z,71.57
2022-09-17T03:23:48.154Z,71.91
2022-09-17T03:28:39.895Z,72.25
2022-09-17T03:33:32.371Z,72.23
2022-09-17T03:38:24.195Z,72.57
2022-09-17T03:43:16.460Z,72.79
2022-09-17T03:48:08.153Z,73.17
2022-09-17T03:52:59.818Z,73.03
2022-09-17T03:57:51.526Z,73.30
2022-09-17T04:02:43.791Z,73.21
2022-09-17T04:07:35.497Z,73.09
2022-09-17T04:12:27.074Z,73.81
2022-09-17T04:17:19.871Z,73.35
2022-09-17T04:22:11.530Z,73.34
2022-09-17T04:27:03.285Z,73.61
2022-09-17T04:31:54.833Z,73.93
2022-09-17T04:36:46.490Z,73.65
2022-09-17T04:41:38.145Z,73.88
2022-09-17T04:46:30.140Z,73.56
2022-09-17T04:51:21.797Z,74.56
2022-09-17T04:56:13.466Z,75.30
2022-09-17T05:01:05.391Z,75.94
2022-09-17T05:05:57.174Z,75.44
2022-09-17T05:10:51.267Z,75.81
2022-09-17T05:15:42.932Z,75.98
2022-09-17T05:20:34.642Z,75.75
2022-09-17T05:25:26.429Z,76.28
2022-09-17T05:30:18.381Z,75.90
2022-09-17T05:35:10.960Z,75.86
2022-09-17T05:40:07.483Z,75.91
2022-09-17T05:44:59.152Z,76.08
2022-09-17T05:49:50.865Z,76.52
2022-09-17T05:54:43.329Z,76.07
2022-09-17T05:59:36.073Z,75.88
2022-09-17T06:04:29.639Z,76.02
2022-09-17T06:09:25.076Z,76.12
2022-09-17T06:14:16.776Z,75.89
2022-09-17T06:19:08.355Z,76.30
2022-09-17T06:24:00.948Z,76.41
2022-09-17T06:28:52.637Z,76.74
2022-09-17T06:33:44.391Z,77.26
2022-09-17T06:38:36.468Z,78.88
2022-09-17T06:43:28.674Z,77.96
2022-09-17T06:48:21.023Z,78.77
2022-09-17T06:53:12.700Z,79.02
2022-09-17T06:58:04.299Z,76.47
2022-09-17T07:03:00.821Z,71.57
2022-09-17T07:07:53.041Z,69.40
2022-09-17T07:12:49.698Z,67.64
2022-09-17T07:17:44.590Z,66.22
2022-09-17T07:22:36.515Z,62.86
2022-09-17T07:27:32.345Z,59.82
2022-09-17T07:32:24.555Z,60.03
2022-09-17T07:37:16.861Z,58.15
2022-09-17T07:42:09.546Z,57.49
2022-09-17T07:47:01.227Z,54.21
2022-09-17T07:51:54.844Z,51.78
2022-09-17T07:56:46.681Z,50.62
2022-09-17T08:01:38.439Z,48.44
2022-09-17T08:06:30.923Z,46.21
2022-09-17T08:11:51.916Z,44.66
2022-09-17T08:16:37.355Z,43.22
2022-09-17T08:21:29.002Z,42.32
2022-09-17T08:26:23.005Z,42.34
2022-09-17T08:31:16.871Z,39.75
2022-09-17T08:36:11.720Z,39.56
2022-09-17T08:41:22.207Z,37.44
2022-09-17T08:46:13.965Z,35.95
2022-09-17T08:51:28.688Z,37.43
2022-09-17T08:56:21.559Z,38.06
2022-09-17T09:01:28.576Z,36.72
2022-09-17T09:06:27.273Z,34.21
2022-09-17T09:11:27.541Z,34.81
2022-09-17T09:16:23.846Z,33.51
2022-09-17T09:21:26.932Z,34.45
2022-09-17T09:26:23.726Z,33.57
2022-09-17T09:32:03.183Z,33.65
2022-09-17T09:37:20.165Z,34.05
2022-09-17T09:42:16.140Z,32.41
2022-09-17T09:47:28.008Z,33.06
2022-09-17T09:52:41.465Z,32.50
2022-09-17T09:57:46.133Z,32.65
2022-09-17T10:02:37.879Z,31.74
2022-09-17T10:07:29.631Z,32.27
2022-09-17T10:12:21.776Z,33.10
2022-09-17T10:17:27.237Z,32.30
2022-09-17T10:22:20.313Z,31.79
2022-09-17T10:27:18.786Z,32.25
2022-09-17T10:32:16.863Z,32.27
2022-09-17T10:37:54.562Z,32.57
2022-09-17T10:42:50.848Z,32.94
2022-09-17T10:47:44.220Z,31.82
2022-09-17T10:52:40.961Z,32.32
2022-09-17T10:58:10.245Z,30.45
2022-09-17T11:03:13.975Z,31.23
2022-09-17T11:08:14.906Z,31.74
2022-09-17T11:13:29.353Z,33.41
2022-09-17T11:18:41.056Z,32.81
2022-09-17T11:24:10.643Z,31.76
2022-09-17T11:29:24.563Z,32.57
2022-09-17T11:34:27.186Z,32.52
2022-09-17T11:39:30.397Z,33.89
2022-09-17T11:44:37.001Z,32.54
2022-09-17T11:49:37.825Z,33.23
2022-09-17T11:54:37.650Z,32.61
2022-09-17T11:59:32.391Z,33.44
2022-09-17T12:04:27.119Z,34.16
2022-09-17T12:09:26.289Z,34.83
2022-09-17T12:14:29.146Z,33.83
2022-09-17T12:19:43.249Z,34.29
2022-09-17T12:24:35.039Z,34.74
2022-09-17T12:29:51.704Z,34.56
2022-09-17T12:35:19.232Z,33.90
2022-09-17T12:40:17.187Z,34.19
2022-09-17T12:45:32.954Z,35.04
2022-09-17T12:50:27.540Z,35.28
2022-09-17T12:55:46.771Z,36.34
2022-09-17T13:00:52.303Z,36.28
2022-09-17T13:06:30.808Z,35.96
2022-09-17T13:11:41.423Z,36.55
2022-09-17T13:16:45.294Z,37.87
2022-09-17T13:22:01.376Z,38.23
2022-09-17T13:26:55.054Z,37.86
2022-09-17T13:31:48.834Z,40.05
2022-09-17T13:36:47.779Z,39.24
2022-09-17T13:41:42.175Z,37.70
2022-09-17T13:46:36.395Z,37.97
2022-09-17T13:51:31.202Z,38.79
2022-09-17T13:56:34.964Z,39.79
2022-09-17T14:02:27.460Z,40.37
2022-09-17T14:07:23.596Z,40.91
2022-09-17T14:12:44.700Z,40.37
2022-09-17T14:17:53.443Z,40.76
2022-09-17T14:22:45.120Z,39.84
2022-09-17T14:28:00.503Z,40.03
2022-09-17T14:32:52.046Z,40.84
2022-09-17T14:37:47.605Z,40.81
2022-09-17T14:42:39.383Z,41.34
2022-09-17T14:47:31.313Z,40.23
2022-09-17T14:52:27.953Z,40.88
2022-09-17T14:57:29.719Z,42.18
2022-09-17T15:02:46.334Z,41.43
2022-09-17T15:07:41.820Z,41.66
2022-09-17T15:12:38.332Z,41.94
2022-09-17T15:17:31.100Z,42.52
2022-09-17T15:22:28.590Z,41.93
2022-09-17T15:27:34.266Z,41.92
2022-09-17T15:32:26.712Z,41.26
2022-09-17T15:37:21.094Z,42.80
2022-09-17T15:42:20.344Z,44.29
2022-09-17T15:47:51.063Z,44.61
2022-09-17T15:52:43.143Z,44.05
2022-09-17T15:57:35.149Z,44.50
2022-09-17T16:02:32.558Z,45.50
2022-09-17T16:07:30.053Z,45.37
2022-09-17T16:12:24.541Z,45.74
2022-09-17T16:17:26.419Z,46.41
2022-09-17T16:22:18.324Z,47.85
2022-09-17T16:27:32.191Z,48.46
2022-09-17T16:32:23.813Z,48.67
2022-09-17T16:37:15.481Z,48.75
2022-09-17T16:42:07.191Z,48.68
2022-09-17T16:46:58.984Z,48.62
2022-09-17T16:51:51.267Z,48.90
2022-09-17T16:56:42.901Z,48.32
2022-09-17T17:01:34.779Z,48.01
2022-09-17T17:06:27.023Z,48.53
2022-09-17T17:11:18.718Z,48.50
2022-09-17T17:16:12.022Z,49.40
2022-09-17T17:21:08.394Z,49.34
2022-09-17T17:26:00.570Z,49.59
2022-09-17T17:30:52.854Z,49.56
2022-09-17T17:35:46.296Z,49.28
2022-09-17T17:40:38.088Z,49.32
2022-09-17T17:45:29.738Z,49.21
2022-09-17T17:50:21.525Z,49.68
2022-09-17T17:55:13.606Z,49.66
2022-09-17T18:00:05.894Z,50.61
2022-09-17T18:05:02.068Z,51.65
2022-09-17T18:09:55.724Z,52.43
2022-09-17T18:14:47.704Z,53.04
2022-09-17T18:19:39.371Z,53.48
2022-09-17T18:24:30.991Z,53.61
2022-09-17T18:29:22.672Z,53.90
2022-09-17T18:34:16.441Z,53.94
2022-09-17T18:39:46.703Z,54.60
2022-09-17T18:44:23.271Z,54.98
2022-09-17T18:49:15.593Z,55.07
2022-09-17T18:54:07.545Z,55.53
2022-09-17T18:59:03.302Z,55.63
2022-09-17T19:03:59.047Z,55.50
2022-09-17T19:08:51.123Z,56.33
2022-09-17T19:13:45.255Z,56.47
2022-09-17T19:18:39.678Z,56.79
2022-09-17T19:23:31.821Z,57.28
2022-09-17T19:28:23.635Z,57.44
2022-09-17T19:33:15.375Z,57.85
2022-09-17T19:38:11.181Z,57.75
2022-09-17T19:43:04.874Z,57.64
2022-09-17T19:48:01.618Z,58.11
2022-09-17T19:52:53.359Z,58.48
2022-09-17T19:57:44.982Z,58.52
2022-09-17T20:02:36.679Z,59.44
2022-09-17T20:07:29.279Z,59.04
2022-09-17T20:12:20.891Z,59.24
2022-09-17T20:17:13.189Z,59.82
2022-09-17T20:22:04.886Z,60.37
2022-09-17T20:26:56.487Z,60.33
2022-09-17T20:31:48.235Z,61.22
2022-09-17T20:36:40.042Z,60.87
2022-09-17T20:41:31.945Z,60.62
2022-09-17T20:46:28.950Z,61.04
2022-09-17T20:51:24.122Z,61.25
2022-09-17T20:56:21.026Z,61.37
2022-09-17T21:01:17.890Z,61.23
2022-09-17T21:06:16.404Z,61.62
2022-09-17T21:11:08.119Z,62.23
2022-09-17T21:16:00.910Z,62.65
2022-09-17T21:20:53.183Z,62.56
2022-09-17T21:25:45.768Z,62.68
2022-09-17T21:30:37.467Z,62.93
2022-09-17T21:35:32.761Z,63.24
2022-09-17T21:40:24.529Z,63.63
2022-09-17T21:45:16.194Z,63.27
2022-09-17T21:50:08.620Z,63.73
2022-09-17T21:55:00.358Z,64.44
2022-09-17T21:59:51.998Z,64.57
2022-09-17T22:04:43.661Z,64.91
2022-09-17T22:09:35.322Z,64.55
2022-09-17T22:14:27.013Z,64.88
2022-09-17T22:19:20.533Z,65.33
2022-09-17T22:24:12.786Z,64.88
2022-09-17T22:29:07.368Z,65.29
2022-09-17T22:33:59.422Z,65.50
2022-09-17T22:38:57.252Z,65.83
2022-09-17T22:43:53.380Z,65.78
2022-09-17T22:48:45.602Z,66.00
2022-09-17T22:53:38.377Z,65.79
2022-09-17T22:58:31.155Z,65.88
2022-09-17T23:03:26.261Z,66.36
2022-09-17T23:08:18.097Z,66.32
2022-09-17T23:13:11.313Z,66.39
2022-09-17T23:18:04.726Z,66.63
2022-09-17T23:22:56.675Z,67.02
2022-09-17T23:27:48.420Z,66.54
2022-09-17T23:32:40.082Z,67.19
2022-09-17T23:37:31.858Z,67.36
2022-09-17T23:42:23.598Z,67.46
2022-09-17T23:47:15.260Z,67.15
2022-09-17T23:52:06.989Z,67.17
2022-09-17T23:56:58.676Z,67.09
